createdAt,value
2022-12-03T00:00:39.271Z,3.50
2022-12-03T00:03:07.625Z,3.50
2022-12-03T00:05:48.302Z,3.50
2022-12-03T00:08:17.334Z,3.40
2022-12-03T00:10:45.537Z,3.30
2022-12-03T00:13:13.666Z,3.30
2022-12-03T00:15:41.880Z,3.30
2022-12-03T00:18:10.051Z,3.30
2022-12-03T00:20:39.611Z,3.30
2022-12-03T00:23:07.744Z,3.30
2022-12-03T00:25:35.934Z,3.30
2022-12-03T00:28:04.184Z,3.30
2022-12-03T00:30:32.312Z,3.30
2022-12-03T00:33:00.515Z,3.30
2022-12-03T00:35:28.816Z,3.30
2022-12-03T00:37:58.379Z,3.30
2022-12-03T00:40:26.510Z,3.30
2022-12-03T00:42:54.633Z,3.30
2022-12-03T00:45:22.846Z,3.30
2022-12-03T00:47:50.955Z,3.30
2022-12-03T00:50:19.296Z,3.30
2022-12-03T00:52:47.466Z,3.20
2022-12-03T00:55:17.171Z,3.30
2022-12-03T00:57:45.366Z,3.30
2022-12-03T01:00:14.997Z,3.30
2022-12-03T01:02:43.216Z,3.30
2022-12-03T01:05:12.262Z,3.30
2022-12-03T01:07:40.524Z,3.20
2022-12-03T01:10:09.549Z,3.10
2022-12-03T01:12:39.089Z,3.10
2022-12-03T01:15:08.854Z,3.20
2022-12-03T01:17:37.491Z,3.10
2022-12-03T01:20:15.868Z,3.00
2022-12-03T01:22:43.985Z,2.90
2022-12-03T01:25:12.555Z,3.00
2022-12-03T01:27:42.159Z,3.00
2022-12-03T01:30:12.392Z,2.90
2022-12-03T01:32:39.601Z,3.00
2022-12-03T01:35:08.288Z,2.90
2022-12-03T01:37:37.231Z,2.90
2022-12-03T01:40:06.678Z,2.90
2022-12-03T01:42:37.331Z,2.80
2022-12-03T01:45:11.220Z,2.90
2022-12-03T01:47:39.703Z,2.90
2022-12-03T01:50:12.654Z,2.80
2022-12-03T01:52:41.367Z,2.80
2022-12-03T01:55:16.502Z,2.80
2022-12-03T01:57:47.570Z,2.80
2022-12-03T02:00:19.470Z,2.80
2022-12-03T02:02:56.440Z,2.90
2022-12-03T02:05:27.524Z,2.90
2022-12-03T02:07:57.705Z,2.80
2022-12-03T02:10:29.309Z,2.80
2022-12-03T02:13:01.150Z,2.80
2022-12-03T02:15:30.772Z,2.70
2022-12-03T02:17:59.182Z,2.70
2022-12-03T02:20:27.602Z,2.70
2022-12-03T02:23:02.807Z,2.70
2022-12-03T02:25:35.483Z,2.70
2022-12-03T02:28:05.271Z,2.60
2022-12-03T02:30:33.810Z,2.50
2022-12-03T02:33:03.199Z,2.40
2022-12-03T02:35:35.106Z,2.40
2022-12-03T02:38:08.622Z,2.40
2022-12-03T02:40:38.732Z,2.40
2022-12-03T02:43:06.760Z,2.50
2022-12-03T02:45:37.777Z,2.40
2022-12-03T02:48:09.964Z,2.40
2022-12-03T02:50:41.784Z,2.40
2022-12-03T02:53:15.992Z,2.40
2022-12-03T02:55:45.954Z,2.30
2022-12-03T02:58:14.944Z,2.20
2022-12-03T03:00:44.546Z,2.20
2022-12-03T03:03:13.399Z,2.00
2022-12-03T03:05:42.709Z,2.00
2022-12-03T03:08:12.559Z,1.90
2022-12-03T03:10:43.362Z,1.90
2022-12-03T03:13:15.665Z,1.90
2022-12-03T03:15:44.343Z,1.90
2022-12-03T03:18:15.188Z,1.80
2022-12-03T03:20:43.559Z,1.80
2022-12-03T03:23:17.710Z,1.80
2022-12-03T03:25:50.567Z,1.80
2022-12-03T03:28:20.657Z,1.90
2022-12-03T03:30:48.900Z,1.90
2022-12-03T03:33:17.915Z,2.00
2022-12-03T03:35:47.544Z,2.10
2022-12-03T03:38:16.741Z,2.00
2022-12-03T03:40:45.442Z,2.00
2022-12-03T03:43:14.469Z,1.90
2022-12-03T03:45:44.803Z,1.90
2022-12-03T03:48:14.144Z,1.90
2022-12-03T03:50:43.403Z,1.80
2022-12-03T03:53:13.537Z,1.70
2022-12-03T03:55:42.885Z,1.50
2022-12-03T03:58:11.122Z,1.50
2022-12-03T04:00:39.446Z,1.50
2022-12-03T04:03:08.933Z,1.40
2022-12-03T04:05:37.081Z,1.40
2022-12-03T04:08:06.275Z,1.40
2022-12-03T04:10:51.899Z,1.40
2022-12-03T04:13:20.021Z,1.30
2022-12-03T04:15:48.266Z,1.30
2022-12-03T04:18:35.119Z,1.30
2022-12-03T04:21:17.122Z,1.30
2022-12-03T04:23:45.480Z,1.10
2022-12-03T04:26:31.293Z,1.20
2022-12-03T04:28:59.479Z,1.10
2022-12-03T04:31:45.138Z,1.20
2022-12-03T04:34:32.289Z,1.20
2022-12-03T04:37:04.162Z,1.20
2022-12-03T04:39:32.490Z,1.00
2022-12-03T04:42:00.664Z,1.00
2022-12-03T04:44:36.710Z,1.00
2022-12-03T04:47:07.956Z,1.00
2022-12-03T04:49:39.439Z,1.10
2022-12-03T04:52:07.957Z,1.10
2022-12-03T04:54:36.556Z,1.20
2022-12-03T04:57:05.252Z,1.30
2022-12-03T04:59:33.806Z,1.20
2022-12-03T05:02:01.965Z,1.10
2022-12-03T05:04:30.163Z,1.00
2022-12-03T05:06:59.695Z,0.90
2022-12-03T05:09:30.395Z,1.00
2022-12-03T05:11:58.595Z,0.90
2022-12-03T05:14:26.803Z,0.90
2022-12-03T05:16:54.971Z,0.90
2022-12-03T05:19:43.457Z,0.90
2022-12-03T05:22:11.987Z,0.90
2022-12-03T05:24:40.193Z,1.10
2022-12-03T05:27:08.379Z,1.10
2022-12-03T05:29:36.632Z,1.10
2022-12-03T05:32:04.900Z,1.10
2022-12-03T05:34:33.093Z,1.20
2022-12-03T05:37:01.198Z,1.20
2022-12-03T05:39:30.839Z,1.20
2022-12-03T05:42:16.342Z,1.30
2022-12-03T05:44:44.512Z,1.30
2022-12-03T05:47:12.655Z,1.40
2022-12-03T05:49:40.820Z,1.40
2022-12-03T05:52:09.078Z,1.40
2022-12-03T05:54:38.647Z,1.30
2022-12-03T05:57:07.064Z,1.20
2022-12-03T05:59:35.443Z,1.20
2022-12-03T06:02:03.806Z,1.10
2022-12-03T06:04:32.028Z,1.20
2022-12-03T06:07:00.255Z,1.30
2022-12-03T06:09:28.379Z,1.30
2022-12-03T06:11:57.950Z,1.30
2022-12-03T06:14:26.124Z,1.40
2022-12-03T06:16:54.294Z,1.30
2022-12-03T06:19:22.425Z,1.40
2022-12-03T06:21:50.549Z,1.40
2022-12-03T06:24:18.698Z,1.40
2022-12-03T06:26:46.812Z,1.40
2022-12-03T06:29:16.375Z,1.30
2022-12-03T06:31:44.591Z,1.20
2022-12-03T06:34:12.849Z,1.20
2022-12-03T06:36:41.038Z,1.20
2022-12-03T06:39:09.224Z,1.20
2022-12-03T06:41:37.464Z,1.20
2022-12-03T06:44:05.854Z,1.30
2022-12-03T06:46:35.453Z,1.30
2022-12-03T06:49:03.845Z,1.20
2022-12-03T06:51:31.946Z,1.30
2022-12-03T06:54:00.079Z,1.40
2022-12-03T06:56:34.416Z,1.30
2022-12-03T06:59:04.295Z,1.40
2022-12-03T07:01:32.531Z,1.40
2022-12-03T07:04:02.339Z,1.40
2022-12-03T07:06:30.761Z,1.40
2022-12-03T07:08:58.971Z,1.40
2022-12-03T07:11:32.992Z,1.40
2022-12-03T07:14:05.573Z,1.40
2022-12-03T07:16:34.798Z,1.50
2022-12-03T07:19:05.472Z,1.50
2022-12-03T07:21:33.863Z,1.40
2022-12-03T07:24:02.097Z,1.50
2022-12-03T07:26:30.215Z,1.50
2022-12-03T07:28:58.333Z,1.50
2022-12-03T07:31:26.573Z,1.60
2022-12-03T07:33:54.777Z,1.60
2022-12-03T07:36:24.311Z,1.70
2022-12-03T07:38:52.688Z,1.60
2022-12-03T07:41:20.831Z,1.60
2022-12-03T07:43:49.003Z,1.60
2022-12-03T07:46:17.291Z,1.70
2022-12-03T07:48:45.460Z,1.70
2022-12-03T07:51:15.439Z,1.80
2022-12-03T07:53:45.400Z,1.80
2022-12-03T07:56:13.604Z,1.80
2022-12-03T07:58:41.747Z,1.80
2022-12-03T08:01:10.623Z,1.90
2022-12-03T08:03:39.646Z,1.90
2022-12-03T08:06:08.111Z,1.90
2022-12-03T08:08:36.231Z,2.00
2022-12-03T08:11:05.997Z,2.00
2022-12-03T08:13:35.836Z,2.20
2022-12-03T08:16:15.997Z,2.30
2022-12-03T08:18:44.478Z,2.30
2022-12-03T08:21:13.866Z,2.30
2022-12-03T08:23:42.329Z,2.30
2022-12-03T08:26:22.524Z,2.30
2022-12-03T08:28:50.841Z,2.40
2022-12-03T08:31:26.863Z,2.40
2022-12-03T08:34:12.122Z,2.40
2022-12-03T08:36:40.348Z,2.50
2022-12-03T08:39:29.019Z,2.40
2022-12-03T08:42:21.310Z,2.40
2022-12-03T08:44:49.490Z,2.30
2022-12-03T08:47:21.844Z,2.40
2022-12-03T08:49:55.973Z,2.50
2022-12-03T08:52:31.690Z,2.60
2022-12-03T08:55:00.949Z,2.60
2022-12-03T08:57:32.261Z,2.80
2022-12-03T09:00:04.238Z,2.70
2022-12-03T09:02:34.310Z,2.80
2022-12-03T09:05:15.282Z,2.90
2022-12-03T09:07:43.718Z,2.80
2022-12-03T09:10:12.206Z,2.80
2022-12-03T09:12:42.090Z,2.80
2022-12-03T09:15:10.862Z,2.80
2022-12-03T09:17:39.615Z,2.70
2022-12-03T09:20:09.547Z,2.80
2022-12-03T09:22:37.667Z,2.80
2022-12-03T09:25:06.726Z,2.90
2022-12-03T09:27:34.832Z,2.80
2022-12-03T09:30:05.233Z,2.70
2022-12-03T09:32:33.435Z,2.80
2022-12-03T09:35:01.694Z,2.90
2022-12-03T09:37:29.891Z,3.10
2022-12-03T09:39:58.028Z,3.20
2022-12-03T09:42:26.883Z,3.10
2022-12-03T09:44:55.860Z,3.20
2022-12-03T09:47:25.798Z,3.20
2022-12-03T09:49:54.738Z,3.10
2022-12-03T09:52:27.339Z,3.10
2022-12-03T09:54:56.188Z,3.20
2022-12-03T09:57:25.591Z,3.20
2022-12-03T09:59:54.086Z,3.10
2022-12-03T10:02:26.072Z,3.10
2022-12-03T10:05:02.088Z,3.20
2022-12-03T10:07:30.318Z,3.10
2022-12-03T10:09:58.645Z,3.00
2022-12-03T10:12:26.960Z,3.10
2022-12-03T10:14:55.383Z,3.30
2022-12-03T10:17:23.872Z,3.30
2022-12-03T10:19:52.253Z,3.20
2022-12-03T10:22:22.029Z,3.20
2022-12-03T10:25:07.173Z,3.30
2022-12-03T10:27:35.396Z,3.30
2022-12-03T10:30:07.281Z,3.40
2022-12-03T10:32:42.519Z,3.50
2022-12-03T10:35:13.588Z,3.60
2022-12-03T10:38:00.089Z,3.40
2022-12-03T10:40:30.538Z,3.50
2022-12-03T10:43:14.666Z,3.60
2022-12-03T10:45:43.809Z,3.80
2022-12-03T10:48:15.090Z,3.80
2022-12-03T10:50:54.006Z,3.80
2022-12-03T10:53:27.251Z,3.70
2022-12-03T10:55:59.645Z,3.70
2022-12-03T10:58:29.549Z,3.60
2022-12-03T11:00:59.939Z,3.60
2022-12-03T11:03:30.144Z,3.70
2022-12-03T11:06:01.592Z,3.70
2022-12-03T11:08:34.604Z,3.80
2022-12-03T11:11:09.277Z,3.90
2022-12-03T11:13:53.012Z,4.10
2022-12-03T11:17:12.404Z,4.20
2022-12-03T11:19:47.140Z,4.20
2022-12-03T11:22:43.174Z,4.30
2022-12-03T11:25:51.451Z,4.30
2022-12-03T11:28:53.461Z,4.40
2022-12-03T11:31:42.722Z,4.30
2022-12-03T11:34:42.779Z,4.30
2022-12-03T11:37:27.507Z,4.30
2022-12-03T11:40:28.397Z,4.30
2022-12-03T11:42:56.663Z,4.10
2022-12-03T11:45:33.407Z,3.90
2022-12-03T11:48:06.718Z,3.80
2022-12-03T11:50:40.107Z,3.90
2022-12-03T11:53:18.160Z,3.90
2022-12-03T11:55:52.052Z,4.10
2022-12-03T11:58:26.886Z,4.20
2022-12-03T12:00:58.845Z,4.30
2022-12-03T12:03:29.178Z,4.30
2022-12-03T12:06:06.093Z,4.30
2022-12-03T12:08:35.380Z,4.40
2022-12-03T12:11:04.284Z,4.40
2022-12-03T12:13:58.012Z,4.10
2022-12-03T12:16:52.956Z,4.00
2022-12-03T12:19:32.844Z,3.90
2022-12-03T12:22:32.262Z,4.00
2022-12-03T12:25:30.821Z,4.10
2022-12-03T12:28:17.568Z,4.30
2022-12-03T12:30:45.880Z,4.30
2022-12-03T12:33:23.341Z,4.40
2022-12-03T12:35:52.019Z,4.40
2022-12-03T12:38:26.227Z,4.40
2022-12-03T12:41:02.849Z,4.30
2022-12-03T12:43:39.096Z,4.40
2022-12-03T12:46:46.657Z,4.30
2022-12-03T12:49:25.731Z,4.30
2022-12-03T12:51:57.588Z,4.40
2022-12-03T12:54:36.073Z,4.40
2022-12-03T12:57:14.656Z,4.40
2022-12-03T12:59:43.507Z,4.30
2022-12-03T13:02:44.742Z,4.40
2022-12-03T13:05:16.397Z,4.60
2022-12-03T13:07:47.043Z,4.60
2022-12-03T13:10:33.984Z,4.50
2022-12-03T13:13:16.663Z,4.50
2022-12-03T13:15:51.981Z,4.50
2022-12-03T13:18:40.124Z,4.50
2022-12-03T13:21:20.043Z,4.50
2022-12-03T13:23:49.102Z,4.60
2022-12-03T13:26:34.661Z,4.60
2022-12-03T13:29:13.340Z,4.40
2022-12-03T13:31:44.424Z,4.30
2022-12-03T13:34:20.243Z,4.30
2022-12-03T13:36:58.057Z,4.30
2022-12-03T13:39:32.981Z,4.30
2022-12-03T13:42:33.983Z,4.30
2022-12-03T13:45:04.012Z,4.10
2022-12-03T13:47:33.199Z,4.00
2022-12-03T13:50:04.678Z,4.00
2022-12-03T13:52:36.042Z,4.10
2022-12-03T13:55:05.506Z,4.20
2022-12-03T13:57:33.675Z,4.30
2022-12-03T14:00:01.829Z,4.40
2022-12-03T14:02:30.143Z,4.30
2022-12-03T14:05:00.426Z,4.30
2022-12-03T14:07:29.235Z,4.20
2022-12-03T14:09:58.846Z,4.20
2022-12-03T14:12:26.998Z,4.20
2022-12-03T14:14:55.616Z,4.10
2022-12-03T14:17:23.741Z,4.20
2022-12-03T14:19:52.434Z,4.20
2022-12-03T14:22:23.446Z,4.20
2022-12-03T14:24:51.674Z,4.20
2022-12-03T14:27:21.874Z,4.20
2022-12-03T14:29:50.138Z,4.10
2022-12-03T14:32:18.596Z,3.90
2022-12-03T14:34:46.881Z,3.80
2022-12-03T14:37:15.381Z,4.00
2022-12-03T14:39:43.653Z,4.10
2022-12-03T14:42:14.779Z,3.90
2022-12-03T14:44:45.867Z,3.80
2022-12-03T14:47:14.585Z,3.90
2022-12-03T14:49:43.071Z,4.00
2022-12-03T14:52:12.644Z,4.00
2022-12-03T14:54:42.621Z,4.00
2022-12-03T14:57:12.712Z,4.10
2022-12-03T14:59:41.271Z,4.10
2022-12-03T15:02:11.708Z,4.20
2022-12-03T15:04:39.976Z,4.20
2022-12-03T15:07:08.581Z,4.20
2022-12-03T15:09:36.720Z,4.20
2022-12-03T15:12:05.861Z,4.20
2022-12-03T15:14:34.155Z,4.10
2022-12-03T15:17:02.398Z,4.00
2022-12-03T15:19:32.017Z,4.00
2022-12-03T15:22:00.177Z,4.10
2022-12-03T15:24:28.751Z,4.00
2022-12-03T15:26:59.204Z,4.10
2022-12-03T15:29:27.348Z,4.10
2022-12-03T15:31:55.508Z,3.90
2022-12-03T15:34:23.711Z,3.90
2022-12-03T15:36:53.159Z,3.90
2022-12-03T15:39:21.289Z,3.90
2022-12-03T15:41:49.732Z,3.90
2022-12-03T15:44:17.910Z,3.90
2022-12-03T15:46:46.079Z,4.00
2022-12-03T15:49:14.385Z,4.00
2022-12-03T15:51:42.481Z,3.90
2022-12-03T15:54:12.529Z,3.90
2022-12-03T15:56:40.764Z,3.90
2022-12-03T15:59:08.871Z,3.90
2022-12-03T16:01:37.073Z,3.80
2022-12-03T16:04:05.385Z,3.90
2022-12-03T16:06:33.551Z,3.90
2022-12-03T16:09:01.637Z,4.00
2022-12-03T16:11:31.315Z,4.00
2022-12-03T16:13:59.424Z,4.00
2022-12-03T16:16:27.578Z,3.90
2022-12-03T16:18:55.688Z,4.00
2022-12-03T16:21:27.010Z,4.00
2022-12-03T16:23:55.847Z,3.90
2022-12-03T16:26:24.159Z,3.90
2022-12-03T16:28:53.877Z,3.90
2022-12-03T16:31:22.020Z,4.00
2022-12-03T16:33:50.415Z,3.90
2022-12-03T16:36:18.759Z,3.90
2022-12-03T16:38:47.003Z,3.90
2022-12-03T16:41:15.140Z,3.90
2022-12-03T16:43:46.037Z,3.90
2022-12-03T16:46:25.688Z,3.80
2022-12-03T16:48:55.478Z,3.80
2022-12-03T16:51:23.769Z,3.80
2022-12-03T16:53:52.236Z,3.90
2022-12-03T16:56:21.313Z,3.90
2022-12-03T16:58:50.600Z,3.90
2022-12-03T17:01:20.139Z,3.90
2022-12-03T17:03:48.416Z,3.90
2022-12-03T17:06:16.582Z,3.90
2022-12-03T17:08:49.420Z,3.90
2022-12-03T17:11:18.751Z,3.90
2022-12-03T17:13:47.506Z,4.00
2022-12-03T17:16:15.961Z,4.00
2022-12-03T17:18:45.673Z,4.00
2022-12-03T17:21:13.950Z,4.00
2022-12-03T17:23:42.230Z,4.00
2022-12-03T17:26:10.447Z,3.90
2022-12-03T17:28:38.692Z,3.90
2022-12-03T17:31:07.119Z,3.80
2022-12-03T17:33:38.509Z,3.80
2022-12-03T17:36:09.069Z,3.80
2022-12-03T17:38:39.373Z,3.70
2022-12-03T17:41:08.435Z,3.70
2022-12-03T17:43:36.652Z,3.70
2022-12-03T17:46:06.696Z,3.80
2022-12-03T17:48:35.326Z,3.70
2022-12-03T17:51:03.647Z,3.70
2022-12-03T17:53:33.251Z,3.60
2022-12-03T17:56:01.355Z,3.70
2022-12-03T17:58:29.839Z,3.70
2022-12-03T18:01:02.480Z,3.60
2022-12-03T18:03:31.118Z,3.70
2022-12-03T18:05:59.261Z,3.60
2022-12-03T18:08:27.423Z,3.70
2022-12-03T18:10:57.047Z,3.60
2022-12-03T18:13:25.182Z,3.60
2022-12-03T18:15:53.376Z,3.70
2022-12-03T18:18:23.883Z,3.70
2022-12-03T18:20:53.685Z,3.70
2022-12-03T18:23:21.944Z,3.70
2022-12-03T18:25:50.147Z,3.70
2022-12-03T18:28:19.662Z,3.60
2022-12-03T18:30:52.463Z,3.60
2022-12-03T18:33:23.331Z,3.70
2022-12-03T18:35:54.103Z,3.50
2022-12-03T18:38:23.419Z,3.60
2022-12-03T18:40:54.471Z,3.60
2022-12-03T18:43:24.098Z,3.50
2022-12-03T18:45:52.323Z,3.50
2022-12-03T18:48:21.648Z,3.40
2022-12-03T18:50:50.347Z,3.40
2022-12-03T18:53:20.448Z,3.40
2022-12-03T18:55:49.370Z,3.30
2022-12-03T18:58:17.516Z,3.40
2022-12-03T19:00:47.213Z,3.30
2022-12-03T19:03:15.403Z,3.20
2022-12-03T19:05:43.544Z,3.10
2022-12-03T19:08:14.946Z,3.00
2022-12-03T19:10:43.545Z,3.10
2022-12-03T19:13:11.930Z,3.10
2022-12-03T19:15:40.263Z,3.20
2022-12-03T19:18:09.913Z,3.20
2022-12-03T19:20:41.962Z,3.10
2022-12-03T19:23:10.336Z,3.10
2022-12-03T19:25:38.569Z,3.00
2022-12-03T19:28:06.810Z,3.10
2022-12-03T19:30:35.059Z,3.10
2022-12-03T19:33:03.223Z,3.10
2022-12-03T19:35:33.644Z,3.10
2022-12-03T19:38:01.805Z,3.20
2022-12-03T19:40:32.084Z,3.20
2022-12-03T19:43:00.296Z,3.10
2022-12-03T19:45:28.725Z,3.00
2022-12-03T19:47:56.964Z,3.00
2022-12-03T19:50:25.168Z,2.90
2022-12-03T19:52:54.795Z,3.10
2022-12-03T19:55:23.002Z,3.00
2022-12-03T19:57:51.242Z,3.00
2022-12-03T20:00:19.848Z,2.90
2022-12-03T20:02:50.193Z,2.80
2022-12-03T20:05:18.690Z,2.70
2022-12-03T20:07:46.964Z,2.80
2022-12-03T20:10:16.721Z,2.80
2022-12-03T20:12:44.826Z,2.90
2022-12-03T20:15:14.338Z,2.90
2022-12-03T20:17:42.602Z,3.00
2022-12-03T20:20:11.672Z,3.00
2022-12-03T20:22:39.844Z,3.10
2022-12-03T20:25:08.866Z,3.10
2022-12-03T20:27:38.827Z,3.10
2022-12-03T20:30:08.202Z,3.10
2022-12-03T20:32:40.730Z,3.00
2022-12-03T20:35:13.265Z,2.90
2022-12-03T20:37:41.445Z,2.90
2022-12-03T20:40:10.666Z,2.90
2022-12-03T20:42:40.162Z,2.90
2022-12-03T20:45:09.472Z,3.00
2022-12-03T20:47:37.647Z,2.90
2022-12-03T20:50:07.337Z,2.80
2022-12-03T20:52:35.621Z,2.80
2022-12-03T20:55:03.809Z,2.90
2022-12-03T20:57:32.276Z,2.80
2022-12-03T21:00:01.859Z,2.80
2022-12-03T21:02:30.204Z,2.80
2022-12-03T21:04:58.440Z,2.80
2022-12-03T21:07:26.619Z,2.80
2022-12-03T21:09:55.201Z,2.80
2022-12-03T21:12:25.003Z,2.80
2022-12-03T21:14:53.245Z,2.70
2022-12-03T21:17:22.923Z,2.70
2022-12-03T21:19:51.229Z,2.70
2022-12-03T21:22:19.407Z,2.60
2022-12-03T21:24:47.528Z,2.60
2022-12-03T21:27:21.188Z,2.70
2022-12-03T21:29:49.698Z,2.70
2022-12-03T21:32:18.000Z,2.60
2022-12-03T21:34:47.562Z,2.70
2022-12-03T21:37:21.113Z,2.80
2022-12-03T21:39:49.323Z,2.80
2022-12-03T21:42:34.289Z,2.80
2022-12-03T21:45:05.989Z,2.80
2022-12-03T21:47:37.240Z,2.80
2022-12-03T21:50:11.223Z,2.60
2022-12-03T21:52:39.583Z,2.70
2022-12-03T21:55:08.347Z,2.70
2022-12-03T21:57:37.250Z,2.70
2022-12-03T22:00:07.879Z,2.80
2022-12-03T22:02:36.417Z,2.70
2022-12-03T22:05:06.478Z,2.80
2022-12-03T22:07:35.589Z,2.80
2022-12-03T22:10:04.768Z,2.80
2022-12-03T22:12:33.029Z,2.70
2022-12-03T22:15:01.393Z,2.70
2022-12-03T22:17:29.672Z,2.70
2022-12-03T22:19:57.843Z,2.80
2022-12-03T22:22:27.404Z,2.90
2022-12-03T22:24:55.590Z,2.80
2022-12-03T22:27:23.785Z,2.80
2022-12-03T22:29:52.106Z,2.80
2022-12-03T22:32:20.580Z,2.80
2022-12-03T22:34:48.863Z,2.80
2022-12-03T22:37:17.211Z,2.80
2022-12-03T22:39:46.757Z,2.80
2022-12-03T22:42:15.009Z,2.70
2022-12-03T22:44:44.415Z,2.70
2022-12-03T22:47:12.594Z,2.80
2022-12-03T22:49:40.792Z,2.80
2022-12-03T22:52:09.479Z,2.80
2022-12-03T22:54:37.657Z,2.90
2022-12-03T22:57:07.287Z,2.90
2022-12-03T22:59:35.486Z,2.70
2022-12-03T23:02:03.895Z,2.70
2022-12-03T23:04:32.312Z,2.70
2022-12-03T23:07:00.624Z,2.70
2022-12-03T23:09:28.896Z,2.80
2022-12-03T23:11:57.124Z,2.80
2022-12-03T23:14:27.967Z,2.70
2022-12-03T23:16:56.278Z,2.80
2022-12-03T23:19:35.710Z,2.80
2022-12-03T23:22:03.930Z,2.80
2022-12-03T23:24:32.207Z,2.80
2022-12-03T23:27:00.473Z,2.70
2022-12-03T23:29:30.160Z,2.70
2022-12-03T23:31:58.921Z,2.70
2022-12-03T23:34:27.285Z,2.70
2022-12-03T23:36:55.482Z,2.80
2022-12-03T23:39:26.125Z,2.80
2022-12-03T23:41:54.505Z,2.80
2022-12-03T23:44:22.801Z,2.90
2022-12-03T23:46:52.530Z,2.90
2022-12-03T23:49:20.746Z,2.90
2022-12-03T23:51:51.738Z,2.90
2022-12-03T23:54:20.086Z,2.80
2022-12-03T23:56:48.422Z,2.80
2022-12-03T23:59:16.675Z,2.80
